createdAt,value
2023-10-16T00:00:02.050Z,101250.66
2023-10-16T00:02:29.530Z,101250.50
2023-10-16T00:04:58.087Z,101258.31
2023-10-16T00:07:25.385Z,101252.88
2023-10-16T00:09:52.752Z,101253.03
2023-10-16T00:12:19.988Z,101257.66
2023-10-16T00:14:47.502Z,101254.91
2023-10-16T00:17:18.445Z,101252.38
2023-10-16T00:19:45.626Z,101246.22
2023-10-16T00:22:14.285Z,101243.56
2023-10-16T00:24:42.020Z,101252.59
2023-10-16T00:27:09.295Z,101256.31
2023-10-16T00:29:41.721Z,101245.91
2023-10-16T00:32:09.859Z,101245.25
2023-10-16T00:34:40.276Z,101242.66
2023-10-16T00:37:07.525Z,101249.00
2023-10-16T00:39:36.952Z,101248.66
2023-10-16T00:42:04.504Z,101243.53
2023-10-16T00:44:31.770Z,101242.84
2023-10-16T00:46:59.106Z,101248.47
2023-10-16T00:49:26.461Z,101246.44
2023-10-16T00:51:54.797Z,101248.16
2023-10-16T00:54:25.042Z,101250.03
2023-10-16T00:56:57.354Z,101244.75
2023-10-16T00:59:31.532Z,101245.94
2023-10-16T01:01:58.916Z,101245.94
2023-10-16T01:04:25.766Z,101250.53
2023-10-16T01:06:53.720Z,101249.22
2023-10-16T01:09:21.008Z,101238.94
2023-10-16T01:11:48.315Z,101240.19
2023-10-16T01:14:17.196Z,101238.66
2023-10-16T01:16:46.618Z,101240.53
2023-10-16T01:19:14.577Z,101244.09
2023-10-16T01:21:42.167Z,101240.69
2023-10-16T01:24:10.988Z,101245.31
2023-10-16T01:26:38.360Z,101236.09
2023-10-16T01:29:05.969Z,101231.00
2023-10-16T01:31:33.318Z,101229.28
2023-10-16T01:34:03.849Z,101233.88
2023-10-16T01:36:31.929Z,101226.03
2023-10-16T01:39:06.010Z,101225.88
2023-10-16T01:41:35.415Z,101218.56
2023-10-16T01:44:02.667Z,101217.53
2023-10-16T01:46:29.942Z,101214.81
2023-10-16T01:48:58.466Z,101211.06
2023-10-16T01:51:25.753Z,101212.63
2023-10-16T01:53:52.876Z,101203.59
2023-10-16T01:56:22.928Z,101200.69
2023-10-16T01:58:51.565Z,101198.78
2023-10-16T02:01:20.586Z,101197.47
2023-10-16T02:03:49.303Z,101201.88
2023-10-16T02:06:17.703Z,101199.50
2023-10-16T02:08:46.456Z,101195.75
2023-10-16T02:11:19.859Z,101198.13
2023-10-16T02:13:47.227Z,101197.09
2023-10-16T02:16:23.949Z,101199.00
2023-10-16T02:18:51.542Z,101199.28
2023-10-16T02:21:19.197Z,101206.09
2023-10-16T02:23:46.600Z,101203.19
2023-10-16T02:26:15.543Z,101201.00
2023-10-16T02:28:42.816Z,101203.75
2023-10-16T02:31:10.125Z,101195.03
2023-10-16T02:33:39.560Z,101198.78
2023-10-16T02:36:06.788Z,101196.91
2023-10-16T02:38:34.020Z,101196.03
2023-10-16T02:41:01.768Z,101198.09
2023-10-16T02:43:29.392Z,101194.00
2023-10-16T02:45:57.140Z,101188.53
2023-10-16T02:48:25.628Z,101184.97
2023-10-16T02:50:54.495Z,101191.59
2023-10-16T02:53:22.336Z,101189.72
2023-10-16T02:55:51.142Z,101192.47
2023-10-16T02:58:18.967Z,101193.50
2023-10-16T03:00:46.354Z,101187.00
2023-10-16T03:03:14.154Z,101191.59
2023-10-16T03:05:41.439Z,101182.56
2023-10-16T03:08:10.136Z,101188.03
2023-10-16T03:10:38.452Z,101180.38
2023-10-16T03:13:05.847Z,101172.56
2023-10-16T03:15:34.744Z,101172.06
2023-10-16T03:18:06.509Z,101174.28
2023-10-16T03:20:33.669Z,101170.88
2023-10-16T03:23:00.816Z,101172.25
2023-10-16T03:25:30.621Z,101171.75
2023-10-16T03:27:58.061Z,101170.22
2023-10-16T03:30:27.347Z,101174.63
2023-10-16T03:32:54.885Z,101172.28
2023-10-16T03:35:22.063Z,101173.66
2023-10-16T03:37:49.369Z,101171.28
2023-10-16T03:40:20.591Z,101172.47
2023-10-16T03:42:51.989Z,101168.53
2023-10-16T03:45:19.354Z,101166.47
2023-10-16T03:53:32.440Z,101176.50
2023-10-16T03:55:59.934Z,101169.06
2023-10-16T03:58:28.588Z,101158.44
2023-10-16T04:00:56.118Z,101169.19
2023-10-16T04:03:24.174Z,101161.69
2023-10-16T04:05:59.752Z,101166.28
2023-10-16T04:08:27.114Z,101160.66
2023-10-16T04:10:55.073Z,101164.97
2023-10-16T04:13:22.476Z,101161.34
2023-10-16T04:15:51.189Z,101157.91
2023-10-16T04:18:18.748Z,101155.03
2023-10-16T04:20:46.232Z,101150.06
2023-10-16T04:23:13.591Z,101152.78
2023-10-16T04:25:41.527Z,101159.28
2023-10-16T04:28:10.524Z,101155.69
2023-10-16T04:30:41.493Z,101145.81
2023-10-16T04:36:04.516Z,101132.34
2023-10-16T04:38:31.719Z,101128.59
2023-10-16T04:40:59.116Z,101127.56
2023-10-16T04:43:29.774Z,101129.28
2023-10-16T04:45:57.054Z,101124.84
2023-10-16T04:48:27.943Z,101125.53
2023-10-16T04:51:26.600Z,101120.75
2023-10-16T04:53:42.659Z,101118.66
2023-10-16T04:56:13.574Z,101110.28
2023-10-16T04:58:43.177Z,101102.78
2023-10-16T05:01:10.644Z,101113.69
2023-10-16T05:03:39.833Z,101110.28
2023-10-16T05:06:09.257Z,101105.69
2023-10-16T05:08:36.681Z,101101.94
2023-10-16T05:11:04.042Z,101105.16
2023-10-16T05:13:31.418Z,101106.69
2023-10-16T05:15:59.025Z,101103.97
2023-10-16T05:18:26.043Z,101102.63
2023-10-16T05:20:57.961Z,101094.44
2023-10-16T05:23:28.111Z,101097.34
2023-10-16T05:25:55.436Z,101101.25
2023-10-16T05:28:22.853Z,101090.25
2023-10-16T05:30:50.658Z,101087.69
2023-10-16T05:33:18.044Z,101095.38
2023-10-16T05:35:45.379Z,101087.34
2023-10-16T05:38:14.629Z,101087.00
2023-10-16T05:40:41.925Z,101092.47
2023-10-16T05:43:09.474Z,101086.16
2023-10-16T05:45:37.851Z,101088.03
2023-10-16T05:48:05.178Z,101089.75
2023-10-16T05:50:37.828Z,101091.63
2023-10-16T05:53:05.210Z,101087.53
2023-10-16T05:55:35.876Z,101081.94
2023-10-16T05:58:12.262Z,101083.50
2023-10-16T06:00:41.630Z,101083.34
2023-10-16T06:05:59.437Z,101080.91
2023-10-16T06:08:26.910Z,101078.91
2023-10-16T06:10:55.624Z,101064.94
2023-10-16T06:13:22.932Z,101075.34
2023-10-16T06:15:50.306Z,101078.41
2023-10-16T06:18:20.594Z,101066.66
2023-10-16T06:20:47.762Z,101074.38
2023-10-16T06:23:15.059Z,101065.38
2023-10-16T06:25:42.485Z,101072.16
2023-10-16T06:28:14.204Z,101078.41
2023-10-16T06:33:36.688Z,101074.50
2023-10-16T06:36:04.303Z,101080.63
2023-10-16T06:38:31.623Z,101094.09
2023-10-16T06:40:59.550Z,101084.84
2023-10-16T06:43:28.559Z,101084.66
2023-10-16T06:45:55.929Z,101083.34
2023-10-16T06:48:23.806Z,101079.59
2023-10-16T06:50:51.053Z,101081.94
2023-10-16T06:53:20.519Z,101088.06
2023-10-16T06:55:51.555Z,101083.28
2023-10-16T06:58:19.131Z,101080.19
2023-10-16T07:00:48.102Z,101082.75
2023-10-16T07:03:15.658Z,101069.97
2023-10-16T07:05:42.935Z,101076.78
2023-10-16T07:08:10.557Z,101075.75
2023-10-16T07:10:41.537Z,101074.72
2023-10-16T07:13:09.168Z,101072.28
2023-10-16T07:15:36.637Z,101076.19
2023-10-16T07:18:07.585Z,101073.47
2023-10-16T07:20:36.702Z,101079.41
2023-10-16T07:23:04.210Z,101081.78
2023-10-16T07:25:31.633Z,101087.25
2023-10-16T07:27:58.815Z,101080.34
2023-10-16T07:30:27.531Z,101076.91
2023-10-16T07:32:55.591Z,101078.28
2023-10-16T07:35:27.343Z,101077.31
2023-10-16T07:37:55.037Z,101084.13
2023-10-16T07:40:25.381Z,101080.88
2023-10-16T07:42:53.610Z,101087.94
2023-10-16T07:45:21.107Z,101090.97
2023-10-16T07:47:49.849Z,101078.94
2023-10-16T07:50:20.036Z,101079.97
2023-10-16T07:52:49.082Z,101083.16
2023-10-16T07:55:15.937Z,101079.72
2023-10-16T07:57:43.161Z,101077.25
2023-10-16T08:00:11.464Z,101074.91
2023-10-16T08:02:42.446Z,101072.00
2023-10-16T08:05:16.542Z,101069.41
2023-10-16T08:07:44.711Z,101072.78
2023-10-16T08:10:13.729Z,101078.97
2023-10-16T08:12:40.911Z,101081.44
2023-10-16T08:15:09.029Z,101075.69
2023-10-16T08:17:37.648Z,101069.06
2023-10-16T08:20:05.672Z,101075.44
2023-10-16T08:25:27.842Z,101078.28
2023-10-16T08:27:58.977Z,101081.91
2023-10-16T08:30:26.436Z,101076.88
2023-10-16T08:32:53.849Z,101072.94
2023-10-16T08:35:21.243Z,101080.78
2023-10-16T08:37:51.506Z,101082.16
2023-10-16T08:40:19.144Z,101090.63
2023-10-16T08:42:53.377Z,101082.47
2023-10-16T08:45:22.977Z,101089.91
2023-10-16T08:47:50.733Z,101078.06
2023-10-16T08:50:19.734Z,101086.34
2023-10-16T08:52:47.060Z,101084.22
2023-10-16T08:55:14.348Z,101082.34
2023-10-16T08:57:42.728Z,101086.34
2023-10-16T09:00:13.559Z,101086.06
2023-10-16T09:02:41.076Z,101078.28
2023-10-16T09:05:08.633Z,101079.97
2023-10-16T09:07:38.070Z,101086.06
2023-10-16T09:10:06.150Z,101085.44
2023-10-16T09:12:33.537Z,101083.53
2023-10-16T09:15:07.044Z,101079.53
2023-10-16T09:17:36.603Z,101075.91
2023-10-16T09:20:06.208Z,101091.38
2023-10-16T09:22:38.204Z,101094.06
2023-10-16T09:25:06.550Z,101093.38
2023-10-16T09:27:36.263Z,101089.56
2023-10-16T09:30:04.122Z,101095.06
2023-10-16T09:32:33.355Z,101101.53
2023-10-16T09:35:01.987Z,101099.03
2023-10-16T09:37:29.381Z,101096.84
2023-10-16T09:39:56.818Z,101101.66
2023-10-16T09:42:24.183Z,101095.72
2023-10-16T09:44:53.708Z,101096.88
2023-10-16T09:47:21.427Z,101091.69
2023-10-16T09:49:50.583Z,101084.72
2023-10-16T09:52:25.002Z,101087.50
2023-10-16T09:54:53.274Z,101088.34
2023-10-16T09:57:22.325Z,101082.19
2023-10-16T09:59:54.812Z,101083.63
2023-10-16T10:02:23.284Z,101084.59
2023-10-16T10:04:53.699Z,101069.78
2023-10-16T10:07:23.310Z,101066.72
2023-10-16T10:09:54.145Z,101074.53
2023-10-16T10:15:33.783Z,101076.72
2023-10-16T10:18:03.506Z,101076.22
2023-10-16T10:20:30.849Z,101074.25
2023-10-16T10:23:03.577Z,101073.97
2023-10-16T10:25:31.587Z,101072.78
2023-10-16T10:31:00.080Z,101068.97
2023-10-16T10:33:41.935Z,101075.09
2023-10-16T10:36:34.933Z,101072.59
2023-10-16T10:39:37.740Z,101073.97
2023-10-16T10:42:06.016Z,101070.81
2023-10-16T10:44:34.519Z,101071.78
2023-10-16T10:47:01.777Z,101056.63
2023-10-16T10:49:29.835Z,101056.50
2023-10-16T10:54:57.343Z,101060.41
2023-10-16T10:57:25.522Z,101067.00
2023-10-16T10:59:53.236Z,101064.25
2023-10-16T11:02:20.790Z,101063.50
2023-10-16T11:04:49.339Z,101052.13
2023-10-16T11:07:16.741Z,101053.97
2023-10-16T11:09:44.216Z,101054.53
2023-10-16T11:12:15.372Z,101047.94
2023-10-16T11:14:42.735Z,101044.81
2023-10-16T11:17:10.073Z,101042.25
2023-10-16T11:19:49.324Z,101050.13
2023-10-16T11:22:20.427Z,101049.00
2023-10-16T11:24:49.397Z,101040.78
2023-10-16T11:27:18.597Z,101037.97
2023-10-16T11:29:46.873Z,101044.31
2023-10-16T11:32:14.582Z,101031.81
2023-10-16T11:34:45.144Z,101027.09
2023-10-16T11:37:15.974Z,101025.25
2023-10-16T11:39:43.966Z,101018.06
2023-10-16T11:42:11.039Z,101006.66
2023-10-16T11:44:39.809Z,101009.34
2023-10-16T11:47:08.545Z,101013.34
2023-10-16T11:49:36.535Z,101010.44
2023-10-16T11:52:07.734Z,101012.75
2023-10-16T11:54:43.314Z,101013.91
2023-10-16T11:57:11.750Z,101012.53
2023-10-16T11:59:40.721Z,101013.72
2023-10-16T12:02:08.099Z,101015.47
2023-10-16T12:04:35.843Z,101012.16
2023-10-16T12:07:03.245Z,101010.50
2023-10-16T12:09:30.864Z,101006.34
2023-10-16T12:14:51.715Z,100996.69
2023-10-16T12:17:19.729Z,101001.25
2023-10-16T12:19:47.412Z,100996.34
2023-10-16T12:22:15.828Z,100987.88
2023-10-16T12:24:43.113Z,100988.31
2023-10-16T12:27:12.751Z,100983.94
2023-10-16T12:29:40.650Z,100985.66
2023-10-16T12:32:09.517Z,100980.59
2023-10-16T12:34:36.711Z,100983.16
2023-10-16T12:37:05.047Z,100979.41
2023-10-16T12:39:32.261Z,100978.81
2023-10-16T12:42:00.748Z,100981.47
2023-10-16T12:44:28.245Z,100977.97
2023-10-16T12:46:55.713Z,100984.56
2023-10-16T12:49:24.883Z,100975.19
2023-10-16T12:51:52.110Z,100981.19
2023-10-16T12:54:19.292Z,100990.63
2023-10-16T12:56:46.866Z,100981.00
2023-10-16T12:59:14.053Z,100978.94
2023-10-16T13:01:41.603Z,100976.41
2023-10-16T13:04:08.812Z,100970.53
2023-10-16T13:06:37.520Z,100962.25
2023-10-16T13:09:05.014Z,100954.06
2023-10-16T13:11:32.260Z,100954.78
2023-10-16T13:13:59.545Z,100945.53
2023-10-16T13:19:21.655Z,100946.59
2023-10-16T13:21:49.774Z,100957.69
2023-10-16T13:24:17.067Z,100954.34
2023-10-16T13:26:44.606Z,100956.13
2023-10-16T13:29:12.061Z,100952.41
2023-10-16T13:31:40.885Z,100936.38
2023-10-16T13:34:08.671Z,100934.69
2023-10-16T13:36:35.900Z,100934.84
2023-10-16T13:39:05.399Z,100936.88
2023-10-16T13:41:36.896Z,100941.34
2023-10-16T13:44:04.194Z,100940.59
2023-10-16T13:46:31.424Z,100937.91
2023-10-16T13:48:59.031Z,100935.47
2023-10-16T13:51:26.397Z,100927.97
2023-10-16T13:53:53.771Z,100938.94
2023-10-16T13:56:22.825Z,100931.59
2023-10-16T13:58:50.130Z,100928.94
2023-10-16T14:01:17.377Z,100925.22
2023-10-16T14:03:44.857Z,100929.41
2023-10-16T14:06:12.261Z,100922.28
2023-10-16T14:08:39.936Z,100921.00
2023-10-16T14:11:06.627Z,100909.88
2023-10-16T14:13:35.457Z,100908.00
2023-10-16T14:16:09.131Z,100893.28
2023-10-16T14:18:36.952Z,100889.44
2023-10-16T14:21:04.480Z,100888.38
2023-10-16T14:23:31.786Z,100879.66
2023-10-16T14:25:59.394Z,100872.91
2023-10-16T14:28:27.159Z,100871.47
2023-10-16T14:30:57.302Z,100877.59
2023-10-16T14:33:26.659Z,100880.84
2023-10-16T14:35:53.956Z,100879.63
2023-10-16T14:38:21.298Z,100880.84
2023-10-16T14:40:48.979Z,100892.88
2023-10-16T14:43:19.364Z,100879.75
2023-10-16T14:45:46.742Z,100879.28
2023-10-16T14:48:16.270Z,100880.25
2023-10-16T14:50:44.003Z,100877.59
2023-10-16T14:53:11.356Z,100877.59
2023-10-16T14:55:38.818Z,100870.59
2023-10-16T14:58:13.596Z,100868.66
2023-10-16T15:00:51.680Z,100856.47
2023-10-16T15:03:21.311Z,100848.66
2023-10-16T15:05:49.324Z,100851.69
2023-10-16T15:08:18.009Z,100841.91
2023-10-16T15:10:49.912Z,100833.25
2023-10-16T15:13:27.036Z,100845.50
2023-10-16T15:15:54.788Z,100837.75
2023-10-16T15:18:24.622Z,100838.88
2023-10-16T15:20:51.986Z,100834.13
2023-10-16T15:23:19.367Z,100826.00
2023-10-16T15:25:46.769Z,100821.56
2023-10-16T15:28:24.295Z,100828.22
2023-10-16T15:31:00.274Z,100828.41
2023-10-16T15:33:29.068Z,100827.00
2023-10-16T15:35:56.687Z,100835.66
2023-10-16T15:38:25.777Z,100825.84
2023-10-16T15:40:55.829Z,100824.19
2023-10-16T15:43:24.697Z,100818.44
2023-10-16T15:45:55.008Z,100822.34
2023-10-16T15:48:22.313Z,100819.75
2023-10-16T15:50:51.159Z,100824.03
2023-10-16T15:53:18.542Z,100830.56
2023-10-16T15:55:48.794Z,100827.97
2023-10-16T15:58:16.428Z,100824.97
2023-10-16T16:00:43.879Z,100818.56
2023-10-16T16:03:14.226Z,100821.53
2023-10-16T16:05:41.560Z,100820.59
2023-10-16T16:08:10.553Z,100813.94
2023-10-16T16:10:40.196Z,100813.72
2023-10-16T16:13:07.801Z,100805.06
2023-10-16T16:15:35.686Z,100818.09
2023-10-16T16:18:06.477Z,100806.34
2023-10-16T16:20:33.926Z,100802.09
2023-10-16T16:23:01.790Z,100797.47
2023-10-16T16:25:30.955Z,100789.13
2023-10-16T16:27:58.668Z,100791.75
2023-10-16T16:30:25.965Z,100798.50
2023-10-16T16:32:53.294Z,100795.44
2023-10-16T16:35:21.792Z,100789.78
2023-10-16T16:37:53.781Z,100786.41
2023-10-16T16:40:21.540Z,100794.13
2023-10-16T16:42:52.036Z,100796.91
2023-10-16T16:45:20.813Z,100792.03
2023-10-16T16:47:48.079Z,100795.22
2023-10-16T16:50:15.858Z,100797.63
2023-10-16T16:52:44.140Z,100794.59
2023-10-16T16:55:11.693Z,100792.34
2023-10-16T16:57:39.667Z,100792.34
2023-10-16T17:00:11.174Z,100798.81
2023-10-16T17:02:38.683Z,100797.97
2023-10-16T17:10:55.804Z,100794.66
2023-10-16T17:13:26.565Z,100798.03
2023-10-16T17:15:55.301Z,100799.84
2023-10-16T17:18:22.868Z,100790.16
2023-10-16T17:21:00.258Z,100796.69
2023-10-16T17:23:27.743Z,100809.16
2023-10-16T17:25:55.112Z,100807.88
2023-10-16T17:28:22.388Z,100813.03
2023-10-16T17:33:41.754Z,100819.78
2023-10-16T17:36:09.041Z,100825.50
2023-10-16T17:38:36.368Z,100828.03
2023-10-16T17:41:04.100Z,100826.97
2023-10-16T17:43:31.261Z,100821.66
2023-10-16T17:45:58.546Z,100831.00
2023-10-16T17:48:26.045Z,100828.88
2023-10-16T17:50:54.858Z,100820.91
2023-10-16T17:53:22.357Z,100828.06
2023-10-16T17:55:50.331Z,100827.81
2023-10-16T17:58:17.579Z,100826.38
2023-10-16T18:00:44.804Z,100827.03
2023-10-16T18:03:12.573Z,100829.78
2023-10-16T18:05:40.317Z,100821.75
2023-10-16T18:08:12.806Z,100813.91
2023-10-16T18:10:43.564Z,100810.53
2023-10-16T18:13:10.785Z,100815.19
2023-10-16T18:15:52.045Z,100818.81
2023-10-16T18:18:19.985Z,100821.09
2023-10-16T18:20:50.665Z,100831.44
2023-10-16T18:23:19.803Z,100825.34
2023-10-16T18:25:47.144Z,100816.25
2023-10-16T18:28:15.134Z,100820.69
2023-10-16T18:30:43.319Z,100817.94
2023-10-16T18:33:10.649Z,100817.50
2023-10-16T18:35:38.912Z,100818.97
2023-10-16T18:38:06.920Z,100807.19
2023-10-16T18:40:39.687Z,100812.66
2023-10-16T18:43:07.562Z,100804.19
2023-10-16T18:45:35.625Z,100810.13
2023-10-16T18:50:54.646Z,100802.34
2023-10-16T18:59:08.740Z,100800.41
2023-10-16T19:01:36.121Z,100787.09
2023-10-16T19:04:03.357Z,100797.22
2023-10-16T19:06:30.726Z,100791.09
2023-10-16T19:08:58.238Z,100791.53
2023-10-16T19:11:26.940Z,100795.13
2023-10-16T19:13:54.142Z,100794.28
2023-10-16T19:16:21.524Z,100797.69
2023-10-16T19:18:48.915Z,100795.53
2023-10-16T19:21:16.048Z,100796.19
2023-10-16T19:23:44.104Z,100789.84
2023-10-16T19:26:14.991Z,100794.72
2023-10-16T19:28:48.312Z,100791.53
2023-10-16T19:31:15.318Z,100798.31
2023-10-16T19:33:43.074Z,100792.59
2023-10-16T19:36:15.029Z,100800.41
2023-10-16T19:38:42.912Z,100795.34
2023-10-16T19:41:09.617Z,100796.41
2023-10-16T19:43:36.934Z,100801.66
2023-10-16T19:46:05.768Z,100792.63
2023-10-16T19:48:36.188Z,100795.16
2023-10-16T19:51:03.859Z,100793.25
2023-10-16T19:53:31.061Z,100790.72
2023-10-16T19:55:58.269Z,100790.06
2023-10-16T19:58:27.752Z,100782.88
2023-10-16T20:00:54.994Z,100786.25
2023-10-16T20:03:24.078Z,100793.03
2023-10-16T20:05:53.059Z,100786.69
2023-10-16T20:08:20.357Z,100786.28
2023-10-16T20:10:47.878Z,100789.22
2023-10-16T20:13:15.360Z,100798.09
2023-10-16T20:15:42.993Z,100795.97
2023-10-16T20:18:12.823Z,100802.28
2023-10-16T20:23:32.701Z,100799.78
2023-10-16T20:26:00.172Z,100790.06
2023-10-16T20:28:27.750Z,100800.00
2023-10-16T20:30:56.008Z,100801.03
2023-10-16T20:33:23.528Z,100801.91
2023-10-16T20:35:52.881Z,100814.56
2023-10-16T20:38:20.503Z,100818.75
2023-10-16T20:40:47.954Z,100813.72
2023-10-16T20:43:15.169Z,100812.03
2023-10-16T20:45:42.528Z,100810.34
2023-10-16T20:48:09.809Z,100810.75
2023-10-16T20:50:37.134Z,100816.47
2023-10-16T20:53:06.001Z,100811.41
2023-10-16T20:55:33.715Z,100808.84
2023-10-16T20:58:01.154Z,100807.38
2023-10-16T21:00:29.198Z,100808.22
2023-10-16T21:02:58.240Z,100806.13
2023-10-16T21:05:26.429Z,100816.44
2023-10-16T21:07:55.060Z,100819.22
2023-10-16T21:10:24.835Z,100813.28
2023-10-16T21:12:52.605Z,100808.88
2023-10-16T21:15:21.094Z,100810.09
2023-10-16T21:17:50.028Z,100805.25
2023-10-16T21:20:19.078Z,100807.81
2023-10-16T21:22:47.745Z,100807.81
2023-10-16T21:25:15.282Z,100800.19
2023-10-16T21:27:46.497Z,100794.28
2023-10-16T21:30:15.212Z,100793.22
2023-10-16T21:32:42.561Z,100792.41
2023-10-16T21:35:10.361Z,100782.28
2023-10-16T21:37:37.522Z,100787.97
2023-10-16T21:40:06.411Z,100786.91
2023-10-16T21:42:34.132Z,100783.53
2023-10-16T21:45:02.423Z,100783.31
2023-10-16T21:47:29.518Z,100782.47
2023-10-16T21:49:56.272Z,100784.16
2023-10-16T21:52:24.245Z,100779.94
2023-10-16T21:54:51.046Z,100780.34
2023-10-16T21:57:17.780Z,100777.41
2023-10-16T21:59:45.136Z,100771.28
2023-10-16T22:02:13.178Z,100773.63
2023-10-16T22:04:40.302Z,100772.09
2023-10-16T22:07:08.494Z,100772.31
2023-10-16T22:09:36.069Z,100769.28
2023-10-16T22:12:03.527Z,100767.59
2023-10-16T22:14:31.232Z,100760.41
2023-10-16T22:16:58.861Z,100759.31
2023-10-16T22:19:27.892Z,100752.09
2023-10-16T22:21:54.984Z,100756.06
2023-10-16T22:27:12.898Z,100749.16
2023-10-16T22:29:39.582Z,100743.09
2023-10-16T22:32:06.214Z,100751.16
2023-10-16T22:34:38.814Z,100752.25
2023-10-16T22:37:06.120Z,100746.81
2023-10-16T22:39:33.573Z,100736.47
2023-10-16T22:42:01.876Z,100730.34
2023-10-16T22:44:29.804Z,100737.94
2023-10-16T22:46:57.544Z,100735.81
2023-10-16T22:49:25.225Z,100733.06
2023-10-16T22:51:53.860Z,100730.13
2023-10-16T22:54:21.064Z,100728.22
2023-10-16T22:56:49.120Z,100722.97
2023-10-16T22:59:16.013Z,100725.06
2023-10-16T23:01:42.740Z,100722.13
2023-10-16T23:04:10.133Z,100724.84
2023-10-16T23:06:37.462Z,100722.13
2023-10-16T23:09:06.469Z,100723.38
2023-10-16T23:11:34.093Z,100720.84
2023-10-16T23:14:01.361Z,100720.44
2023-10-16T23:16:29.001Z,100715.97
2023-10-16T23:18:58.072Z,100716.63
2023-10-16T23:21:25.478Z,100714.50
2023-10-16T23:23:52.857Z,100713.00
2023-10-16T23:26:21.677Z,100705.22
2023-10-16T23:28:49.130Z,100701.22
2023-10-16T23:31:16.443Z,100694.88
2023-10-16T23:33:44.491Z,100696.75
2023-10-16T23:36:12.311Z,100692.78
2023-10-16T23:38:40.271Z,100699.94
2023-10-16T23:41:09.567Z,100707.75
2023-10-16T23:43:38.296Z,100703.28
2023-10-16T23:48:57.307Z,100699.91
2023-10-16T23:51:24.616Z,100700.34
2023-10-16T23:53:51.843Z,100694.63
2023-10-16T23:59:14.035Z,100683.81
